Etusivu
METAR-TAF:

METAR-TAF

Lentoasemat :

Takamatsu, Japani

Leveyspiiri: 34-13N, Pituuspiiri: 134-01E, korkeus merenpinnasta: 185 m

Tämänhetkinen sää

Tämä raportti tehtiin 9 tuntia ja 27 minuuttia sitten, kello 12.00 UTC
Tuuli 14 kn lännestä/lounaasta
Lämpötila 16°C
Kosteus 94%
Ilmanpaine 1013 hPa
Näkyvyys 10 km tai enemmän
Muutamia pilviä 100 ft:n korkeudessa
Hajanaisia pilviä 1500 ft:n korkeudessa
Hajonneita pilviä 4000 ft:n korkeudessa
heikkoja vesikuuroja

METAR: RJOT 181200Z 24014KT 9999 -SHRA FEW001 SCT015 BKN040 16/15 Q1013

Aika: 06:27 (21:27 UTC)

Sääennuste

Tämä raportti tehtiin 4 tuntia ja 17 minuuttia sitten, kello 17.10 UTC
Ennuste voimassa 18. päivästä klo 18 UTC - 20. päivään klo 00 UTC
Tuuli 10 kn lännestä
Näkyvyys 10 km tai enemmän
Muutamia pilviä 2000 ft:n korkeudessa
Hajonneita pilviä 5000 ft:n korkeudessa

TAF: RJOT 181710Z 1818/2000 27010KT 9999 FEW020 BKN050

Säähavainnot ja -ennusteet yli 4000 lentoasemalta (METAR- ja TAF-raportit).

Käytössä olevat sääasemat on merkitty karttaan keltaisilla ja punaisilla pisteillä.

Aseta hiiri pisteen päälle nähdäksesi sääaseman nimen.

Klikkaa sitten nähdäksesi säähavainnot ja -ennusteet.

Kartan vaihtaminen: klikkaa mustalla rastilla varustettuja vihreitä pisteitä, niin voit zoomata sisään; viivalla varustettua vihreää pistettä, niin voit zoomata ulos tai vihreitä nuolia, niin pääset viereisille kartoille.


METAR-TAF: